Time;durP1;ratioP1;P1;durP2;ratioP2;P2;SDS_P1;SDS_P2;PMS_P1;PMS_P2;Temp;Humidity;BMP_temperature;BMP_pressure;BME280_temperature;BME280_humidity;BME280_pressure;Samples;Min_cycle;Max_cycle;Signal;HPM_P1;HPM_P2
2022/04/24 00:01:39;890380.00;2.97;1539.23;33611.00;0.11;58.83;;;;;15.70;1.00;;;;;;2280876;60;1454;-87
2022/04/24 00:04:06;344797.00;1.15;594.92;0.00;0.00;0.62;;;;;15.60;1.00;;;;;;2280940;60;1113;-87
2022/04/24 00:06:34;556666.00;1.86;959.45;9132.00;0.03;16.45;;;;;15.50;1.00;;;;;;2280955;60;954;-86
2022/04/24 00:09:02;527594.00;1.76;909.35;0.00;0.00;0.62;;;;;15.30;1.00;;;;;;2280859;60;1421;-85
2022/04/24 00:11:30;643690.00;2.15;1109.72;13697.00;0.05;24.35;;;;;15.40;1.00;;;;;;2280710;60;1997;-88
2022/04/24 00:46:41;120138088.00;400.46;70242160.00;0.00;0.00;0.62;;;;;15.90;1.00;;;;;;2278083;61;1475;-89
2022/04/24 00:51:38;152995.00;0.51;264.97;0.00;0.00;0.62;;;;;16.00;1.00;;;;;;2278558;61;1401;-87
2022/04/24 00:56:34;555863.00;1.85;958.07;0.00;0.00;0.62;;;;;16.20;1.00;;;;;;2307590;55;3645;-87
2022/04/24 01:04:06;596784.00;1.99;1028.67;0.00;0.00;0.62;;;;;16.40;1.00;;;;;;2351350;40;3477;-89
2022/04/24 01:11:32;343457.00;1.14;592.62;0.00;0.00;0.62;;;;;16.40;1.00;;;;;;2282816;61;1888;-90
2022/04/24 01:23:53;534857.00;1.78;921.86;29070.00;0.10;50.97;;;;;16.30;1.00;;;;;;2277896;61;1394;-88
2022/04/24 01:31:22;430384.00;1.43;742.05;0.00;0.00;0.62;;;;;16.00;1.00;;;;;;2273468;61;1912;-88
2022/04/24 01:36:18;534242.00;1.78;920.80;0.00;0.00;0.62;;;;;14.40;1.00;;;;;;2282093;55;3667;-86
2022/04/24 01:38:47;215430.00;0.72;372.48;0.00;0.00;0.62;;;;;13.60;1.00;;;;;;2340398;55;3753;-90
2022/04/24 01:56:18;786835.00;2.62;1358.17;0.00;0.00;0.62;;;;;13.80;1.00;;;;;;2279022;61;1217;-90
2022/04/24 02:01:18;889082.00;2.96;1536.95;0.00;0.00;0.62;;;;;14.20;1.00;;;;;;2471333;55;3614;31
2022/04/24 03:21:13;782305.00;2.61;1350.28;0.00;0.00;0.62;;;;;16.10;1.00;;;;;;2294566;39;3699;-86
2022/04/24 03:23:40;79833.00;0.27;138.75;0.00;0.00;0.62;;;;;16.10;1.00;;;;;;2284082;60;1116;-85
2022/04/24 04:10:57;941567.00;3.14;1629.25;0.00;0.00;0.62;;;;;14.20;1.00;;;;;;2282776;61;1950;-87
2022/04/24 04:13:24;476039.00;1.59;820.58;0.00;0.00;0.62;;;;;13.40;1.00;;;;;;2280703;61;1171;-87
2022/04/24 04:15:51;166232.00;0.55;287.78;13480.00;0.04;23.98;;;;;13.10;1.00;;;;;;2280860;61;903;-88
2022/04/24 04:20:47;636315.00;2.12;1096.97;11415.00;0.04;20.40;;;;;11.40;5.90;;;;;;2278928;61;1303;-89
2022/04/24 04:23:14;85233.00;0.28;148.08;0.00;0.00;0.62;;;;;11.20;6.60;;;;;;2277404;61;1557;-88
2022/04/24 04:25:41;661918.00;2.21;1141.26;29217.00;0.10;51.23;;;;;11.10;5.90;;;;;;2281712;55;3801;-86
2022/04/24 04:30:38;170352.00;0.57;294.87;0.00;0.00;0.62;;;;;11.20;5.00;;;;;;2278259;61;1907;-85
2022/04/24 04:33:06;130072.00;0.43;225.45;0.00;0.00;0.62;;;;;11.50;2.90;;;;;;2295643;40;3594;-87
2022/04/24 04:35:33;0.00;0.00;0.62;0.00;0.00;0.62;;;;;11.60;2.40;;;;;;2280605;60;1638;-84
2022/04/24 04:40:33;191433.00;0.64;331.18;0.00;0.00;0.62;;;;;11.80;1.00;;;;;;2282358;61;1407;-87
2022/04/24 04:43:02;315969.00;1.05;545.37;0.00;0.00;0.62;;;;;11.90;1.00;;;;;;2281958;39;3631;31
2022/04/24 04:50:26;123713.00;0.41;214.49;0.00;0.00;0.62;;;;;11.50;1.00;;;;;;2342454;55;3610;-85
2022/04/24 04:52:52;161642.00;0.54;279.87;0.00;0.00;0.62;;;;;11.40;1.30;;;;;;2297562;40;3623;-87
2022/04/24 04:55:19;59366.00;0.20;103.38;0.00;0.00;0.62;;;;;11.40;2.20;;;;;;2285466;61;470;-90
2022/04/24 04:57:47;176696.00;0.59;305.80;0.00;0.00;0.62;;;;;11.90;1.10;;;;;;2284765;60;1195;-87
2022/04/24 05:00:15;188816.00;0.63;326.67;46618.00;0.16;81.34;;;;;12.00;1.00;;;;;;2284598;60;1392;-87
2022/04/24 05:02:43;30904.00;0.10;54.15;0.00;0.00;0.62;;;;;11.90;1.00;;;;;;2284638;60;1090;-85
2022/04/24 05:05:10;0.00;0.00;0.62;0.00;0.00;0.62;;;;;11.90;1.00;;;;;;2284757;60;1051;-87
2022/04/24 05:07:39;216105.00;0.72;373.64;0.00;0.00;0.62;;;;;12.40;1.00;;;;;;2284848;60;1574;-86
2022/04/24 05:10:07;107732.00;0.36;186.92;0.00;0.00;0.62;;;;;12.50;1.00;;;;;;2284759;60;2010;-88
2022/04/24 05:12:35;0.00;0.00;0.62;0.00;0.00;0.62;;;;;12.70;1.00;;;;;;2284755;60;934;-87
2022/04/24 05:15:03;88757.00;0.30;154.16;0.00;0.00;0.62;;;;;12.90;1.00;;;;;;2284664;60;1762;-87
2022/04/24 05:17:30;0.00;0.00;0.62;0.00;0.00;0.62;;;;;12.90;1.00;;;;;;2284705;60;1504;-87
2022/04/24 05:19:57;0.00;0.00;0.62;0.00;0.00;0.62;;;;;13.00;1.00;;;;;;2284682;60;1399;-86
2022/04/24 05:22:24;37913.00;0.13;66.28;0.00;0.00;0.62;;;;;12.70;1.00;;;;;;2284823;60;1025;-86
2022/04/24 05:24:53;7764.00;0.03;14.08;0.00;0.00;0.62;;;;;12.40;1.00;;;;;;2284632;60;991;-86
2022/04/24 05:27:20;126918.00;0.42;220.01;0.00;0.00;0.62;;;;;12.30;1.00;;;;;;2284739;60;1101;-87
2022/04/24 05:29:47;30718.00;0.10;53.83;0.00;0.00;0.62;;;;;12.40;1.00;;;;;;2284719;60;1391;-88
2022/04/24 05:32:15;5739.00;0.02;10.57;0.00;0.00;0.62;;;;;12.50;1.00;;;;;;2284461;60;2024;-87
2022/04/24 05:34:42;0.00;0.00;0.62;0.00;0.00;0.62;;;;;12.40;1.00;;;;;;2284686;60;998;-87
2022/04/24 05:37:09;983431.00;3.28;1703.15;359172.00;1.20;619.63;;;;;12.60;1.00;;;;;;2284730;60;1071;-87
2022/04/24 05:39:37;7701.00;0.03;13.97;0.00;0.00;0.62;;;;;12.70;1.00;;;;;;2284619;60;1382;-87
2022/04/24 05:42:06;36546.00;0.12;63.91;0.00;0.00;0.62;;;;;12.90;1.00;;;;;;2284677;60;963;-87
2022/04/24 05:44:33;16082.00;0.05;28.48;0.00;0.00;0.62;;;;;13.00;1.00;;;;;;2281111;60;1450;-87
2022/04/24 05:47:00;0.00;0.00;0.62;0.00;0.00;0.62;;;;;13.20;1.00;;;;;;2284646;60;962;-86
2022/04/24 05:49:27;0.00;0.00;0.62;0.00;0.00;0.62;;;;;13.30;1.00;;;;;;2284633;60;1280;-87
2022/04/24 05:51:54;20208.00;0.07;35.63;0.00;0.00;0.62;;;;;13.00;1.00;;;;;;2284608;60;1996;-86
2022/04/24 05:54:21;26479.00;0.09;46.49;0.00;0.00;0.62;;;;;13.20;1.00;;;;;;2284654;60;1175;-88
2022/04/24 05:56:48;50031.00;0.17;87.24;0.00;0.00;0.62;;;;;12.80;1.00;;;;;;2284584;60;1473;-87
2022/04/24 05:59:16;0.00;0.00;0.62;0.00;0.00;0.62;;;;;12.70;1.00;;;;;;2284629;60;1269;-85
2022/04/24 06:01:43;2221.00;0.01;4.47;0.00;0.00;0.62;;;;;12.90;1.00;;;;;;2284536;60;2029;-87
2022/04/24 06:04:10;10466.00;0.03;18.76;0.00;0.00;0.62;;;;;13.20;1.00;;;;;;2284595;60;1125;-88
2022/04/24 06:06:37;10446.00;0.03;18.72;0.00;0.00;0.62;;;;;12.70;1.00;;;;;;2284623;60;981;-85
2022/04/24 06:09:06;20524.00;0.07;36.18;0.00;0.00;0.62;;;;;12.10;1.00;;;;;;2284614;60;1379;-86
2022/04/24 06:11:33;154948.00;0.52;268.33;9936.00;0.03;17.84;;;;;11.60;1.00;;;;;;2284308;60;1929;-87
2022/04/24 06:14:00;41297.00;0.14;72.13;0.00;0.00;0.62;;;;;11.10;1.00;;;;;;2284519;60;1279;-84
2022/04/24 06:16:29;247289.00;0.82;427.29;34229.00;0.11;59.90;;;;;11.30;1.00;;;;;;2284411;60;1539;-86
2022/04/24 06:18:56;30015.00;0.10;52.61;0.00;0.00;0.62;;;;;11.10;1.00;;;;;;2284386;60;1761;-85
2022/04/24 06:21:23;52109.00;0.17;90.83;0.00;0.00;0.62;;;;;11.30;1.00;;;;;;2284404;60;1027;-85
2022/04/24 06:23:51;92537.00;0.31;160.69;0.00;0.00;0.62;;;;;11.50;1.00;;;;;;2284561;60;1148;-86
2022/04/24 06:26:18;21812.00;0.07;38.41;0.00;0.00;0.62;;;;;11.80;1.00;;;;;;2284480;60;1023;-86
2022/04/24 06:28:45;309033.00;1.03;533.45;25232.00;0.08;44.33;;;;;11.80;1.00;;;;;;2284504;60;1130;-86
2022/04/24 06:31:12;48413.00;0.16;84.44;0.00;0.00;0.62;;;;;11.60;1.00;;;;;;2284481;60;1992;-85
2022/04/24 06:33:40;41619.00;0.14;72.69;0.00;0.00;0.62;;;;;11.40;1.00;;;;;;2284552;60;905;-85
2022/04/24 06:36:07;32749.00;0.11;57.34;0.00;0.00;0.62;;;;;11.50;1.00;;;;;;2284576;60;1108;-86
2022/04/24 06:38:35;19130.00;0.06;33.76;0.00;0.00;0.62;;;;;11.60;1.00;;;;;;2284501;60;1006;-86
2022/04/24 06:41:02;43843.00;0.15;76.54;0.00;0.00;0.62;;;;;11.50;1.00;;;;;;2284451;60;2175;-86
2022/04/24 06:43:29;78902.00;0.26;137.14;0.00;0.00;0.62;;;;;11.30;1.00;;;;;;2284335;60;1031;-86
2022/04/24 06:45:55;129083.00;0.43;223.75;33019.00;0.11;57.81;;;;;11.40;1.00;;;;;;2284465;60;1047;-86
2022/04/24 06:48:23;0.00;0.00;0.62;0.00;0.00;0.62;;;;;11.30;1.00;;;;;;2284245;60;1542;-86
2022/04/24 06:50:52;28387.00;0.09;49.79;0.00;0.00;0.62;;;;;11.70;1.00;;;;;;2284481;60;1910;-86
2022/04/24 06:53:20;212634.00;0.71;367.67;32893.00;0.11;57.59;;;;;11.60;1.00;;;;;;2284204;60;1083;-86
2022/04/24 06:55:48;16258.00;0.05;28.79;0.00;0.00;0.62;;;;;11.40;1.00;;;;;;2284407;60;1183;-89
2022/04/24 06:58:17;103287.00;0.34;179.25;0.00;0.00;0.62;;;;;11.40;1.00;;;;;;2284395;60;1065;-88
2022/04/24 07:00:45;514570.00;1.72;886.91;62000.00;0.21;107.93;;;;;11.20;1.00;;;;;;2284412;60;1452;-86
2022/04/24 07:03:14;154068.00;0.51;266.82;0.00;0.00;0.62;;;;;11.30;1.10;;;;;;2284473;60;1455;-86
2022/04/24 07:05:42;97238.00;0.32;168.80;0.00;0.00;0.62;;;;;11.40;1.00;;;;;;2284323;60;1145;-88
2022/04/24 07:08:10;12581.00;0.04;22.42;0.00;0.00;0.62;;;;;11.50;1.00;;;;;;2284421;60;1730;-86
2022/04/24 07:10:38;0.00;0.00;0.62;0.00;0.00;0.62;;;;;11.70;1.00;;;;;;2284176;60;2004;-85
2022/04/24 07:13:06;29306.00;0.10;51.38;0.00;0.00;0.62;;;;;12.00;1.00;;;;;;2284395;60;1153;-88
2022/04/24 07:15:36;43472.00;0.14;75.90;0.00;0.00;0.62;;;;;11.70;1.00;;;;;;2284234;60;1682;-86
2022/04/24 07:18:05;10889.00;0.04;19.49;0.00;0.00;0.62;;;;;11.40;1.00;;;;;;2284230;60;1018;-85
2022/04/24 07:20:32;15983.00;0.05;28.31;0.00;0.00;0.62;;;;;11.30;1.00;;;;;;2284287;60;1308;-86
2022/04/24 07:23:02;119833.00;0.40;207.79;0.00;0.00;0.62;;;;;11.50;1.00;;;;;;2284402;60;1155;-87
2022/04/24 07:25:35;7579.00;0.03;13.75;0.00;0.00;0.62;;;;;11.90;1.00;;;;;;2284432;60;1653;-86
2022/04/24 07:28:02;124598.00;0.42;216.01;0.00;0.00;0.62;;;;;12.30;1.00;;;;;;2284302;60;1614;-87
2022/04/24 07:30:29;99772.00;0.33;173.18;0.00;0.00;0.62;;;;;12.30;1.00;;;;;;2284173;60;2000;-86
2022/04/24 07:32:57;136880.00;0.46;237.19;0.00;0.00;0.62;;;;;11.90;1.00;;;;;;2284247;60;1110;-85
2022/04/24 07:35:26;27155.00;0.09;47.66;0.00;0.00;0.62;;;;;12.20;1.00;;;;;;2284210;60;1594;-84
2022/04/24 07:37:54;122046.00;0.41;211.61;0.00;0.00;0.62;;;;;12.30;1.00;;;;;;2284356;60;1481;-87
2022/04/24 07:40:23;62954.00;0.21;109.58;0.00;0.00;0.62;;;;;12.00;1.00;;;;;;2284388;60;1390;-87
2022/04/24 07:42:53;42288.00;0.14;73.85;0.00;0.00;0.62;;;;;12.10;1.00;;;;;;2284294;60;995;-85
2022/04/24 07:45:23;40643.00;0.14;71.00;0.00;0.00;0.62;;;;;12.30;1.00;;;;;;2284375;60;1517;-87
2022/04/24 07:47:50;17769.00;0.06;31.41;0.00;0.00;0.62;;;;;12.10;1.00;;;;;;2284316;60;1672;-87
2022/04/24 07:50:20;6844.00;0.02;12.48;0.00;0.00;0.62;;;;;12.40;1.00;;;;;;2284310;60;1297;-86
2022/04/24 07:52:48;56979.00;0.19;99.25;0.00;0.00;0.62;;;;;12.70;1.00;;;;;;2284217;60;1934;-87
2022/04/24 07:55:18;22377.00;0.07;39.39;0.00;0.00;0.62;;;;;12.50;1.00;;;;;;2284616;60;935;-85
2022/04/24 07:57:46;0.00;0.00;0.62;0.00;0.00;0.62;;;;;12.70;1.00;;;;;;2285017;60;1055;-84
2022/04/24 08:00:16;0.00;0.00;0.62;0.00;0.00;0.62;;;;;13.20;1.00;;;;;;2285023;60;1273;-87
2022/04/24 08:02:47;0.00;0.00;0.62;0.00;0.00;0.62;;;;;13.40;1.00;;;;;;2285052;60;1032;-87
2022/04/24 08:05:20;1217.00;0.00;2.73;0.00;0.00;0.62;;;;;13.60;1.00;;;;;;2285065;60;1576;-86
2022/04/24 08:07:47;48190.00;0.16;84.06;0.00;0.00;0.62;;;;;13.60;1.00;;;;;;2285068;60;1028;-86
2022/04/24 08:10:14;393683.00;1.31;678.95;61719.00;0.21;107.45;;;;;13.60;1.00;;;;;;2284955;60;1639;-86
2022/04/24 08:12:41;25293.00;0.08;44.43;0.00;0.00;0.62;;;;;13.60;1.00;;;;;;2284908;60;1993;-88
2022/04/24 08:15:09;45867.00;0.15;80.04;0.00;0.00;0.62;;;;;13.70;1.00;;;;;;2284834;60;1586;-86
2022/04/24 08:17:38;0.00;0.00;0.62;0.00;0.00;0.62;;;;;13.50;1.00;;;;;;2284941;60;1118;-87
2022/04/24 08:20:07;121732.00;0.41;211.07;0.00;0.00;0.62;;;;;13.30;1.00;;;;;;2284808;60;1361;-85
2022/04/24 08:22:39;0.00;0.00;0.62;0.00;0.00;0.62;;;;;13.30;1.00;;;;;;2284811;60;1533;-86
2022/04/24 08:25:07;192094.00;0.64;332.31;8750.00;0.03;15.78;;;;;13.50;1.00;;;;;;2285063;60;1022;-86
2022/04/24 08:27:34;212293.00;0.71;367.08;52683.00;0.18;91.83;;;;;13.10;1.00;;;;;;2285019;60;1004;-85
2022/04/24 08:30:01;0.00;0.00;0.62;0.00;0.00;0.62;;;;;13.20;1.00;;;;;;2284933;60;1404;-86
2022/04/24 08:32:28;0.00;0.00;0.62;0.00;0.00;0.62;;;;;13.10;1.00;;;;;;2284537;60;1913;-85
2022/04/24 08:34:57;115793.00;0.39;200.82;0.00;0.00;0.62;;;;;13.20;1.00;;;;;;2284979;60;1111;-86
2022/04/24 08:37:24;0.00;0.00;0.62;0.00;0.00;0.62;;;;;13.00;1.00;;;;;;2284970;60;927;-85
2022/04/24 08:39:52;90845.00;0.30;157.77;0.00;0.00;0.62;;;;;12.90;1.00;;;;;;2284934;60;1393;-84
2022/04/24 08:42:21;230817.00;0.77;398.95;0.00;0.00;0.62;;;;;12.90;1.00;;;;;;2284948;60;1086;-85
2022/04/24 08:44:48;198700.00;0.66;343.69;41162.00;0.14;71.90;;;;;13.40;1.00;;;;;;2284916;60;1112;-86
2022/04/24 08:47:16;250530.00;0.84;432.86;0.00;0.00;0.62;;;;;13.50;1.00;;;;;;2284922;60;1178;-86
2022/04/24 08:49:44;278194.00;0.93;480.43;20120.00;0.07;35.48;;;;;13.40;1.00;;;;;;2284845;60;1531;-86
2022/04/24 08:52:14;783781.00;2.61;1352.85;125553.00;0.42;217.66;;;;;13.00;1.00;;;;;;2284851;60;1911;-85
2022/04/24 08:54:42;269244.00;0.90;465.04;15671.00;0.05;27.77;;;;;12.60;1.00;;;;;;2284952;60;996;-87
2022/04/24 08:57:09;0.00;0.00;0.62;0.00;0.00;0.62;;;;;12.50;1.00;;;;;;2284889;60;1064;-85
2022/04/24 08:59:37;335941.00;1.12;579.70;49844.00;0.17;86.92;;;;;12.70;1.00;;;;;;2284871;60;1285;-85
2022/04/24 09:02:05;187524.00;0.63;324.45;0.00;0.00;0.62;;;;;12.80;1.00;;;;;;2284840;60;1258;-85
2022/04/24 09:04:33;301070.00;1.00;519.76;0.00;0.00;0.62;;;;;13.20;1.00;;;;;;2284942;60;1060;-86
2022/04/24 09:07:02;312378.00;1.04;539.20;5443.00;0.02;10.05;;;;;13.30;1.00;;;;;;2284625;60;1502;-86
2022/04/24 09:09:32;234647.00;0.78;405.54;27585.00;0.09;48.40;;;;;13.20;1.00;;;;;;2284869;60;1293;-86
2022/04/24 09:12:10;50627.00;0.17;88.27;0.00;0.00;0.62;;;;;13.00;1.00;;;;;;2284884;60;1919;-84
2022/04/24 09:14:37;254425.00;0.85;439.56;0.00;0.00;0.62;;;;;13.40;1.00;;;;;;2284850;60;1084;-86
2022/04/24 09:17:08;721822.00;2.41;1245.10;59810.00;0.20;104.15;;;;;13.50;1.00;;;;;;2284842;60;1130;-85
2022/04/24 09:19:38;38023.00;0.13;66.47;0.00;0.00;0.62;;;;;13.50;1.00;;;;;;2284847;60;1458;-85
2022/04/24 09:22:08;23318.00;0.08;41.02;0.00;0.00;0.62;;;;;13.20;1.00;;;;;;2284859;60;1129;-85
2022/04/24 09:24:49;22739.00;0.08;40.01;0.00;0.00;0.62;;;;;12.70;1.00;;;;;;2284771;60;1687;-85
2022/04/24 09:27:24;0.00;0.00;0.62;0.00;0.00;0.62;;;;;12.80;1.00;;;;;;2284787;60;1736;-85
2022/04/24 09:29:54;13470.00;0.04;23.96;0.00;0.00;0.62;;;;;12.80;1.00;;;;;;2284833;60;1327;-86
2022/04/24 09:32:21;97349.00;0.32;169.00;30271.00;0.10;53.05;;;;;13.00;1.00;;;;;;2284791;60;1923;-85
2022/04/24 09:34:48;255289.00;0.85;441.05;12928.00;0.04;23.02;;;;;12.80;1.00;;;;;;2284769;60;1162;-85
2022/04/24 09:37:15;479060.00;1.60;825.78;22801.00;0.08;40.12;;;;;12.70;1.00;;;;;;2284691;60;1554;-85
2022/04/24 09:39:42;348515.00;1.16;601.31;0.00;0.00;0.62;;;;;12.80;1.00;;;;;;2284749;60;1597;-86
2022/04/24 09:42:12;589062.00;1.96;1015.34;67674.00;0.23;117.74;;;;;13.00;1.00;;;;;;2284676;60;1548;-86
2022/04/24 09:44:41;361002.00;1.20;622.77;22839.00;0.08;40.19;;;;;13.20;1.00;;;;;;2284709;60;1518;-86
2022/04/24 09:47:08;705561.00;2.35;1216.88;36734.00;0.12;64.24;;;;;13.10;1.00;;;;;;2284759;60;968;-86
2022/04/24 09:49:38;758080.00;2.53;1308.11;58194.00;0.19;101.35;;;;;13.00;1.00;;;;;;2284712;60;1311;-85
2022/04/24 09:52:10;536596.00;1.79;924.86;35508.00;0.12;62.12;;;;;12.90;1.00;;;;;;2284597;60;2008;-86
2022/04/24 09:54:39;365494.00;1.22;630.49;30845.00;0.10;54.05;;;;;12.80;1.00;;;;;;2284700;60;1066;-85
2022/04/24 09:57:10;277398.00;0.92;479.06;0.00;0.00;0.62;;;;;12.70;1.00;;;;;;2284694;60;1726;-84
2022/04/24 09:59:38;77764.00;0.26;135.17;0.00;0.00;0.62;;;;;12.60;1.00;;;;;;2284696;60;1379;-86
2022/04/24 10:02:06;166400.00;0.55;288.07;0.00;0.00;0.62;;;;;12.30;1.00;;;;;;2284744;60;1576;-85
2022/04/24 10:04:38;89776.00;0.30;155.92;0.00;0.00;0.62;;;;;12.60;1.00;;;;;;2284743;60;1049;-86
2022/04/24 10:07:08;86450.00;0.29;150.18;0.00;0.00;0.62;;;;;12.60;1.00;;;;;;2284731;60;1141;-85
2022/04/24 10:09:36;23166.00;0.08;40.75;0.00;0.00;0.62;;;;;12.90;1.00;;;;;;2284670;60;1388;-85
2022/04/24 10:12:09;14258.00;0.05;25.33;0.00;0.00;0.62;;;;;13.00;1.00;;;;;;2284680;60;1990;-85
2022/04/24 10:14:43;0.00;0.00;0.62;0.00;0.00;0.62;;;;;13.10;1.00;;;;;;2284691;60;1147;-85
2022/04/24 10:17:44;0.00;0.00;0.62;0.00;0.00;0.62;;;;;13.40;1.00;;;;;;2284738;60;1014;-84
2022/04/24 10:20:31;33350.00;0.11;58.38;0.00;0.00;0.62;;;;;13.30;1.00;;;;;;2284532;60;1621;-88
2022/04/24 10:23:00;2387.00;0.01;4.76;0.00;0.00;0.62;;;;;13.70;1.00;;;;;;2284095;60;1162;-86
2022/04/24 10:25:32;53737.00;0.18;93.65;0.00;0.00;0.62;;;;;13.70;1.00;;;;;;2284597;60;1477;-87
2022/04/24 10:28:11;37247.00;0.12;65.13;0.00;0.00;0.62;;;;;13.60;1.00;;;;;;2284684;60;1046;-86
2022/04/24 10:30:40;6989.00;0.02;12.73;0.00;0.00;0.62;;;;;13.30;1.00;;;;;;2284588;60;1279;-87
2022/04/24 10:33:18;0.00;0.00;0.62;0.00;0.00;0.62;;;;;13.40;1.00;;;;;;2284567;60;1925;-86
2022/04/24 10:35:52;221857.00;0.74;383.54;48820.00;0.16;85.15;;;;;13.30;1.00;;;;;;2284545;60;1032;-85
2022/04/24 10:38:21;0.00;0.00;0.62;0.00;0.00;0.62;;;;;13.30;1.00;;;;;;2284629;60;1603;-87
2022/04/24 10:40:59;25980.00;0.09;45.62;0.00;0.00;0.62;;;;;13.60;1.00;;;;;;2284536;60;1372;-86
2022/04/24 10:43:27;60024.00;0.20;104.52;0.00;0.00;0.62;;;;;13.50;1.00;;;;;;2284600;60;1113;-87
2022/04/24 10:45:55;0.00;0.00;0.62;0.00;0.00;0.62;;;;;13.30;1.00;;;;;;2284593;60;1117;-85
2022/04/24 10:48:22;47286.00;0.16;82.49;0.00;0.00;0.62;;;;;13.30;1.00;;;;;;2284538;60;1122;-86
2022/04/24 10:50:52;63416.00;0.21;110.38;0.00;0.00;0.62;;;;;13.50;1.00;;;;;;2284582;60;1306;-86
2022/04/24 10:53:19;0.00;0.00;0.62;0.00;0.00;0.62;;;;;13.80;1.00;;;;;;2284442;60;1917;-87
2022/04/24 10:55:46;30316.00;0.10;53.13;0.00;0.00;0.62;;;;;13.70;1.00;;;;;;2284617;60;1084;-86
2022/04/24 10:58:24;34458.00;0.11;60.30;0.00;0.00;0.62;;;;;14.00;1.00;;;;;;2284485;60;1558;-86
2022/04/24 11:00:51;28629.00;0.10;50.21;0.00;0.00;0.62;;;;;14.20;1.00;;;;;;2284561;60;1389;-87
2022/04/24 11:03:19;269378.00;0.90;465.27;11268.00;0.04;20.15;;;;;14.40;1.00;;;;;;2284479;60;1764;-86
2022/04/24 11:05:49;0.00;0.00;0.62;0.00;0.00;0.62;;;;;14.20;1.00;;;;;;2284569;60;900;-86
2022/04/24 11:08:20;0.00;0.00;0.62;0.00;0.00;0.62;;;;;14.20;1.00;;;;;;2284527;60;1050;-84
2022/04/24 11:10:50;126451.00;0.42;219.21;0.00;0.00;0.62;;;;;14.20;1.00;;;;;;2284464;60;1605;-86
2022/04/24 11:13:20;1279.00;0.00;2.84;0.00;0.00;0.62;;;;;14.00;1.00;;;;;;2284429;60;1913;-86
2022/04/24 11:15:48;46476.00;0.15;81.09;0.00;0.00;0.62;;;;;13.80;1.00;;;;;;2284496;60;1048;-85
2022/04/24 11:18:22;0.00;0.00;0.62;0.00;0.00;0.62;;;;;13.70;1.00;;;;;;2284412;60;1324;-87
2022/04/24 11:20:58;88761.00;0.30;154.17;0.00;0.00;0.62;;;;;13.70;1.00;;;;;;2284478;60;1356;-86
2022/04/24 11:23:29;403371.00;1.34;695.60;45366.00;0.15;79.17;;;;;14.10;1.00;;;;;;2284462;60;1003;-87
2022/04/24 11:25:57;126074.00;0.42;218.56;7710.00;0.03;13.98;;;;;14.50;1.00;;;;;;2284472;60;1726;-85
2022/04/24 11:28:37;124683.00;0.42;216.16;0.00;0.00;0.62;;;;;14.70;1.00;;;;;;2284469;60;1175;-87
2022/04/24 11:31:17;29461.00;0.10;51.65;0.00;0.00;0.62;;;;;14.60;1.00;;;;;;2284987;60;1364;-86
2022/04/24 11:33:55;0.00;0.00;0.62;0.00;0.00;0.62;;;;;14.90;1.00;;;;;;2285166;60;2017;-86
2022/04/24 11:36:24;56597.00;0.19;98.59;0.00;0.00;0.62;;;;;15.60;1.00;;;;;;2285166;60;1525;-84
2022/04/24 11:38:52;70791.00;0.24;123.13;0.00;0.00;0.62;;;;;16.10;1.00;;;;;;2285124;60;2009;-87
2022/04/24 11:41:20;66278.00;0.22;115.33;0.00;0.00;0.62;;;;;15.70;1.00;;;;;;2285159;60;1061;-87
2022/04/24 11:43:47;40266.00;0.13;70.35;0.00;0.00;0.62;;;;;15.40;1.00;;;;;;2285145;60;1081;-85
2022/04/24 11:51:49;30550.00;0.10;53.54;0.00;0.00;0.62;;;;;16.20;1.00;;;;;;2285181;60;1907;-86
2022/04/24 11:54:17;65463.00;0.22;113.92;0.00;0.00;0.62;;;;;15.70;1.00;;;;;;2285065;60;1685;-85
2022/04/24 11:56:49;0.00;0.00;0.62;0.00;0.00;0.62;;;;;15.30;1.00;;;;;;2285149;60;1031;-86
2022/04/24 11:59:19;52829.00;0.18;92.08;0.00;0.00;0.62;;;;;15.30;1.00;;;;;;2285099;60;1468;-86
2022/04/24 12:01:54;0.00;0.00;0.62;0.00;0.00;0.62;;;;;15.60;1.00;;;;;;2285083;60;1030;-87
2022/04/24 12:04:26;246954.00;0.82;426.71;94756.00;0.32;164.52;;;;;16.00;1.00;;;;;;2285138;60;1026;-85
2022/04/24 12:07:01;82061.00;0.27;142.60;0.00;0.00;0.62;;;;;16.00;1.00;;;;;;2285118;60;1092;-88
2022/04/24 12:09:28;0.00;0.00;0.62;0.00;0.00;0.62;;;;;16.10;1.00;;;;;;2285067;60;2353;-86
2022/04/24 12:12:05;0.00;0.00;0.62;0.00;0.00;0.62;;;;;16.10;1.00;;;;;;2285130;60;1119;-86
2022/04/24 12:14:31;0.00;0.00;0.62;0.00;0.00;0.62;;;;;16.30;1.00;;;;;;2285087;60;2012;-85
2022/04/24 12:17:04;0.00;0.00;0.62;0.00;0.00;0.62;;;;;16.30;1.00;;;;;;2285102;60;1080;-87
2022/04/24 12:19:34;0.00;0.00;0.62;0.00;0.00;0.62;;;;;16.00;1.00;;;;;;2285035;60;1368;-86
2022/04/24 12:22:07;91144.00;0.30;158.28;24351.00;0.08;42.80;;;;;15.90;1.00;;;;;;2285065;60;1159;-86
2022/04/24 12:24:45;0.00;0.00;0.62;0.00;0.00;0.62;;;;;15.50;1.00;;;;;;2285064;60;1084;-89
2022/04/24 12:27:14;0.00;0.00;0.62;0.00;0.00;0.62;;;;;15.90;1.00;;;;;;2285002;60;1516;-86
2022/04/24 12:29:45;0.00;0.00;0.62;0.00;0.00;0.62;;;;;16.30;1.00;;;;;;2284969;60;1300;-86
2022/04/24 12:32:14;0.00;0.00;0.62;0.00;0.00;0.62;;;;;16.40;1.00;;;;;;2284951;60;2012;-86
2022/04/24 12:34:44;6630.00;0.02;12.11;0.00;0.00;0.62;;;;;16.80;1.00;;;;;;2285026;60;1178;-86
2022/04/24 12:37:11;0.00;0.00;0.62;0.00;0.00;0.62;;;;;16.80;1.00;;;;;;2285070;60;1099;-87
2022/04/24 12:39:38;0.00;0.00;0.62;0.00;0.00;0.62;;;;;16.70;1.00;;;;;;2284986;60;1397;-86
2022/04/24 12:42:14;0.00;0.00;0.62;0.00;0.00;0.62;;;;;16.70;1.00;;;;;;2284715;60;1038;-86
2022/04/24 12:44:42;0.00;0.00;0.62;0.00;0.00;0.62;;;;;16.20;1.00;;;;;;2284953;60;1274;-85
2022/04/24 12:47:09;45825.00;0.15;79.97;0.00;0.00;0.62;;;;;15.70;1.00;;;;;;2284959;60;1049;-86
2022/04/24 12:49:36;0.00;0.00;0.62;0.00;0.00;0.62;;;;;15.90;1.00;;;;;;2284961;60;1387;-86
2022/04/24 12:52:05;0.00;0.00;0.62;0.00;0.00;0.62;;;;;15.70;1.00;;;;;;2284952;60;1121;-87
2022/04/24 12:54:33;74188.00;0.25;129.00;0.00;0.00;0.62;;;;;15.90;1.00;;;;;;2284850;60;2025;-86
2022/04/24 12:57:00;0.00;0.00;0.62;0.00;0.00;0.62;;;;;15.90;1.00;;;;;;2284974;60;1119;-87
2022/04/24 12:59:27;16002.00;0.05;28.35;0.00;0.00;0.62;;;;;16.40;1.00;;;;;;2284880;60;1308;-86
2022/04/24 13:01:54;0.00;0.00;0.62;0.00;0.00;0.62;;;;;16.40;1.00;;;;;;2284919;60;1150;-86
2022/04/24 13:04:21;0.00;0.00;0.62;0.00;0.00;0.62;;;;;16.40;1.00;;;;;;2284911;60;1070;-85
2022/04/24 13:06:49;14421.00;0.05;25.61;0.00;0.00;0.62;;;;;16.40;1.00;;;;;;2284899;60;1795;-86
2022/04/24 13:09:17;0.00;0.00;0.62;0.00;0.00;0.62;;;;;16.40;1.00;;;;;;2284805;60;1334;-87
2022/04/24 13:11:44;33949.00;0.11;59.42;0.00;0.00;0.62;;;;;16.10;1.00;;;;;;2284914;60;962;-86
2022/04/24 13:14:11;14632.00;0.05;25.97;0.00;0.00;0.62;;;;;15.10;1.00;;;;;;2284848;60;1996;-87
2022/04/24 13:19:24;23651.00;0.08;41.59;0.00;0.00;0.62;;;;;14.90;1.00;;;;;;2284906;60;1423;-86
2022/04/24 13:21:52;50094.00;0.17;87.35;0.00;0.00;0.62;;;;;15.50;1.00;;;;;;2284803;60;2087;-86
2022/04/24 13:24:21;139766.00;0.47;242.17;0.00;0.00;0.62;;;;;15.80;1.00;;;;;;2284821;60;1415;-86
2022/04/24 13:26:48;98462.00;0.33;170.92;0.00;0.00;0.62;;;;;16.20;1.00;;;;;;2284760;60;1503;-87
2022/04/24 13:29:15;184456.00;0.61;319.16;0.00;0.00;0.62;;;;;15.80;1.00;;;;;;2284744;60;1555;-87
2022/04/24 13:31:47;183777.00;0.61;317.99;0.00;0.00;0.62;;;;;15.20;1.00;;;;;;2284751;60;1514;-88
2022/04/24 13:34:22;23086.00;0.08;40.61;0.00;0.00;0.62;;;;;15.60;1.00;;;;;;2284777;60;1990;-87
2022/04/24 13:38:17;93307.00;0.31;162.02;0.00;0.00;0.62;;;;;15.40;1.00;;;;;;2284751;60;987;-87
2022/04/24 13:39:42;0.00;0.00;0.62;0.00;0.00;0.62;;;;;15.60;1.00;;;;;;2284629;60;1292;-88
2022/04/24 13:42:13;150162.00;0.50;260.09;0.00;0.00;0.62;;;;;15.80;1.00;;;;;;2284778;60;1055;-87
2022/04/24 13:44:40;54808.00;0.18;95.50;0.00;0.00;0.62;;;;;15.80;1.00;;;;;;2284728;60;1422;-88
2022/04/24 13:47:07;154347.00;0.51;267.30;0.00;0.00;0.62;;;;;16.00;1.00;;;;;;2284715;60;978;-87
2022/04/24 13:49:39;19642.00;0.07;34.65;0.00;0.00;0.62;;;;;15.80;1.00;;;;;;2284679;60;1463;-87
2022/04/24 13:52:06;118190.00;0.39;204.96;0.00;0.00;0.62;;;;;15.80;1.00;;;;;;2284630;60;1493;-86
2022/04/24 13:54:34;93025.00;0.31;161.53;0.00;0.00;0.62;;;;;15.70;1.00;;;;;;2284534;60;2030;-86
2022/04/24 13:57:03;9415.00;0.03;16.94;0.00;0.00;0.62;;;;;15.70;1.00;;;;;;2284678;60;1356;-86
2022/04/24 13:59:30;112889.00;0.38;195.81;0.00;0.00;0.62;;;;;15.50;1.00;;;;;;2284691;60;1273;-85
2022/04/24 14:01:58;200656.00;0.67;347.05;80668.00;0.27;140.19;;;;;15.80;1.00;;;;;;2284592;60;1742;-86